Time;durP1;ratioP1;P1;durP2;ratioP2;P2;SDS_P1;SDS_P2;PMS_P1;PMS_P2;Temp;Humidity;BMP_temperature;BMP_pressure;BME280_temperature;BME280_humidity;BME280_pressure;Samples;Min_cycle;Max_cycle;Signal;HPM_P1;HPM_P2
2021/12/19 00:10:55;;;;;;;66.43;20.92;;;;;;;4.32;74.58;102147.41;4990369;28;20053;-84
2021/12/19 00:13:40;;;;;;;52.53;19.73;;;;;;;4.52;74.57;102147.03;4983060;28;20046;-85
2021/12/19 00:16:26;;;;;;;35.40;16.80;;;;;;;4.58;73.46;102141.47;4974746;28;20046;-85
2021/12/19 00:19:11;;;;;;;47.10;19.23;;;;;;;4.53;73.65;102132.47;4947297;28;1190304;-84
2021/12/19 00:21:56;;;;;;;40.55;16.58;;;;;;;4.55;73.59;102120.41;4989718;28;20043;-84
2021/12/19 00:24:41;;;;;;;56.08;18.27;;;;;;;4.58;73.73;102121.78;4995033;28;20231;-84
2021/12/19 00:27:25;;;;;;;39.28;16.15;;;;;;;4.47;74.09;102117.28;4990643;28;20053;-84
2021/12/19 00:30:11;;;;;;;35.03;16.73;;;;;;;4.49;74.32;102115.16;4988711;28;20047;-84
2021/12/19 00:32:56;;;;;;;50.88;20.73;;;;;;;4.42;73.97;102111.81;4986662;28;20070;-84
2021/12/19 00:35:41;;;;;;;40.40;16.42;;;;;;;4.56;73.96;102107.75;4975640;28;20062;-84
2021/12/19 00:38:25;;;;;;;40.80;16.50;;;;;;;4.75;74.71;102106.50;4974227;28;20050;-84
2021/12/19 00:41:10;;;;;;;37.72;17.60;;;;;;;4.94;73.75;102099.81;4988381;28;20841;-84
2021/12/19 00:44:07;;;;;;;44.78;18.30;;;;;;;4.74;73.51;102086.81;4991001;28;20046;-84
2021/12/19 00:47:04;;;;;;;57.03;20.77;;;;;;;4.60;73.94;102090.88;4993999;28;20062;-84
2021/12/19 00:49:48;;;;;;;68.05;21.80;;;;;;;4.72;74.42;102083.53;4989728;28;20062;-84
2021/12/19 00:52:33;;;;;;;45.95;17.95;;;;;;;4.60;74.25;102090.06;4991289;28;20047;-84
2021/12/19 00:55:20;;;;;;;35.20;16.40;;;;;;;4.64;74.79;102092.03;4995531;28;20050;-85
2021/12/19 00:58:05;;;;;;;49.72;21.05;;;;;;;4.69;74.99;102075.13;4991885;28;20050;-84
2021/12/19 01:00:50;;;;;;;105.07;45.20;;;;;;;4.70;74.40;102069.50;4994900;28;20518;-84
2021/12/19 01:03:36;;;;;;;36.67;14.75;;;;;;;4.61;74.37;102070.16;4989102;28;20050;-84
2021/12/19 01:06:21;;;;;;;45.13;18.20;;;;;;;4.80;73.76;102063.47;4994116;28;20046;-84
2021/12/19 01:09:07;;;;;;;39.83;17.45;;;;;;;4.73;73.42;102070.88;4991693;28;20049;-84
2021/12/19 01:11:52;;;;;;;35.00;19.10;;;;;;;4.68;72.81;102076.19;4994199;28;20689;-84
2021/12/19 01:14:38;;;;;;;41.97;14.10;;;;;;;4.78;72.64;102076.34;4992262;28;20515;-84
2021/12/19 01:17:23;;;;;;;30.63;17.38;;;;;;;4.90;72.96;102079.81;4991245;28;20046;-84
2021/12/19 01:20:20;;;;;;;36.67;17.42;;;;;;;5.20;71.31;102068.72;4987857;28;20058;-84
2021/12/19 01:23:06;;;;;;;44.03;19.15;;;;;;;4.98;71.63;102078.59;4991391;28;20051;-84
2021/12/19 01:25:51;;;;;;;39.85;18.45;;;;;;;5.03;71.53;102071.41;4994832;28;20124;-85
2021/12/19 01:28:37;;;;;;;32.45;15.35;;;;;;;4.93;70.67;102073.94;4990895;28;20115;-85
2021/12/19 01:31:22;;;;;;;35.97;18.30;;;;;;;4.85;71.23;102068.94;4994412;28;20053;-84
2021/12/19 01:34:07;;;;;;;52.17;33.03;;;;;;;4.80;71.04;102068.03;5004960;28;20054;-85
2021/12/19 01:36:52;;;;;;;31.48;16.13;;;;;;;5.14;70.54;102070.50;5015434;28;20046;-84
2021/12/19 01:39:37;;;;;;;34.55;14.15;;;;;;;5.16;70.04;102068.38;4996451;28;20050;-85
2021/12/19 01:42:29;;;;;;;38.25;17.35;;;;;;;4.91;70.81;102062.59;4973949;28;20058;-84
2021/12/19 01:45:22;;;;;;;39.60;17.35;;;;;;;4.95;71.22;102054.81;4994344;28;20046;-85
2021/12/19 01:48:10;;;;;;;34.80;19.38;;;;;;;5.03;69.94;102060.63;4991583;28;20042;-84
2021/12/19 01:50:55;;;;;;;41.55;18.13;;;;;;;4.69;70.33;102050.88;4989634;28;20046;-84
2021/12/19 01:53:40;;;;;;;28.45;14.00;;;;;;;4.75;70.57;102049.91;4992788;28;20053;-85
2021/12/19 01:56:25;;;;;;;30.70;14.90;;;;;;;4.87;69.86;102049.84;4991617;28;20050;-85
2021/12/19 01:59:10;;;;;;;22.27;13.13;;;;;;;4.92;68.42;102050.75;4989779;28;20050;-84
2021/12/19 02:01:56;;;;;;;31.13;16.45;;;;;;;4.65;69.29;102045.16;4986939;28;20054;-84
2021/12/19 02:04:42;;;;;;;37.47;17.40;;;;;;;4.51;69.51;102041.16;4991598;28;20046;-84
2021/12/19 02:07:28;;;;;;;40.25;16.58;;;;;;;4.54;69.33;102043.34;4990222;28;20046;-84
2021/12/19 02:10:14;;;;;;;;;;;;;;;4.56;69.14;102043.13;4968145;28;20046;-84
2021/12/19 02:13:01;;;;;;;29.08;15.52;;;;;;;4.67;68.77;102042.25;4972249;28;19915;-84
2021/12/19 02:15:47;;;;;;;27.65;15.90;;;;;;;4.45;69.44;102044.81;4970085;28;20050;-84
2021/12/19 02:18:32;;;;;;;36.00;17.02;;;;;;;4.33;69.50;102041.34;4968167;28;20050;-84
2021/12/19 02:21:17;;;;;;;22.55;12.00;;;;;;;4.29;69.43;102030.25;4975177;28;20066;-85
2021/12/19 02:24:05;;;;;;;24.15;12.93;;;;;;;4.28;69.61;102030.47;4990899;28;20046;-85
2021/12/19 02:26:50;;;;;;;31.80;14.93;;;;;;;4.17;68.88;102026.78;5012286;28;20435;-85
2021/12/19 02:29:34;;;;;;;26.80;12.23;;;;;;;4.12;68.88;102026.69;4998429;28;20491;-86
2021/12/19 02:32:19;;;;;;;30.93;11.73;;;;;;;4.10;68.44;102026.13;4989130;28;20054;-84
2021/12/19 02:35:06;;;;;;;30.70;12.00;;;;;;;4.14;69.23;102013.00;4988325;28;20062;-85
2021/12/19 02:50:09;;;;;;;36.20;13.80;;;;;;;3.91;70.27;102002.31;4986964;28;20050;-85
2021/12/19 02:52:54;;;;;;;40.33;15.20;;;;;;;4.03;69.95;101993.13;4989411;28;20038;-86
2021/12/19 02:55:43;;;;;;;27.70;12.75;;;;;;;3.94;70.09;102002.66;4988454;28;20070;-85
2021/12/19 02:58:29;;;;;;;36.08;14.77;;;;;;;3.92;70.62;102002.06;4990430;28;20049;-84
2021/12/19 03:01:17;;;;;;;30.77;15.63;;;;;;;3.93;70.56;101992.94;4992298;28;20053;-84
2021/12/19 03:04:03;;;;;;;34.92;16.92;;;;;;;3.90;71.05;101990.75;4987552;28;20054;-85
2021/12/19 03:06:48;;;;;;;27.40;12.38;;;;;;;3.92;70.67;101985.09;4991213;28;20054;-84
2021/12/19 03:12:59;;;;;;;38.72;17.52;;;;;;;4.20;70.49;101988.63;4987462;28;20053;-85
2021/12/19 03:18:48;;;;;;;36.08;15.88;;;;;;;4.04;71.54;101984.00;4989560;28;20530;-84
2021/12/19 03:21:33;;;;;;;27.75;13.82;;;;;;;4.10;70.99;101966.09;4991554;28;20050;-85
2021/12/19 03:24:18;;;;;;;27.05;12.52;;;;;;;3.93;70.73;101971.41;4992678;28;20405;-85
2021/12/19 03:27:02;;;;;;;33.67;13.27;;;;;;;3.87;70.99;101973.19;4987503;28;20043;-84
2021/12/19 03:29:47;;;;;;;59.40;12.35;;;;;;;3.99;71.81;101975.84;4987703;28;20289;-84
2021/12/19 03:32:32;;;;;;;32.70;12.63;;;;;;;3.82;72.58;101975.78;4991619;28;20051;-85
2021/12/19 03:35:17;;;;;;;40.33;14.70;;;;;;;3.85;72.42;101975.31;4992966;28;20054;-83
2021/12/19 03:38:07;;;;;;;55.38;18.13;;;;;;;3.75;72.65;101977.00;4986833;28;20411;-85
2021/12/19 03:41:07;;;;;;;58.63;17.33;;;;;;;3.68;73.54;101973.59;4990174;28;20053;-85
2021/12/19 03:43:52;;;;;;;68.20;20.20;;;;;;;3.54;73.39;101969.56;4987563;28;20039;-85
2021/12/19 03:46:37;;;;;;;31.73;13.85;;;;;;;3.60;74.46;101955.16;4991249;28;20051;-84
2021/12/19 03:49:22;;;;;;;35.53;13.57;;;;;;;3.66;74.23;101954.19;4989106;28;20043;-84
2021/12/19 03:52:07;;;;;;;;;;;;;;;3.69;73.26;101954.56;4991443;28;20051;-85
2021/12/19 03:54:51;;;;;;;33.88;16.23;;;;;;;3.61;73.78;101951.41;4994372;28;19914;-85
2021/12/19 03:57:36;;;;;;;41.58;14.57;;;;;;;3.46;74.06;101954.59;4995793;28;20066;-84
2021/12/19 04:00:26;;;;;;;41.45;14.52;;;;;;;3.73;74.32;101961.06;4995936;28;20050;-85
2021/12/19 04:03:18;;;;;;;51.38;16.88;;;;;;;3.48;74.00;101957.88;4995500;28;20058;-85
2021/12/19 04:06:04;;;;;;;38.00;17.25;;;;;;;3.63;74.23;101960.88;4993412;28;20045;-86
2021/12/19 04:08:50;;;;;;;37.65;16.05;;;;;;;3.70;73.88;101955.38;4993841;28;20057;-85
2021/12/19 04:11:35;;;;;;;49.05;17.25;;;;;;;3.70;73.55;101947.31;4994227;28;20045;-85
2021/12/19 04:14:20;;;;;;;40.20;13.93;;;;;;;3.56;73.59;101945.91;4992971;28;20050;-85
2021/12/19 04:17:05;;;;;;;34.35;16.70;;;;;;;3.92;73.43;101945.56;4990812;28;20058;-85
2021/12/19 04:19:50;;;;;;;34.30;14.23;;;;;;;3.68;72.38;101942.16;4989955;28;20611;-85
2021/12/19 04:22:35;;;;;;;28.30;13.43;;;;;;;3.73;72.88;101944.13;4995308;28;20038;-85
2021/12/19 04:25:20;;;;;;;32.40;13.48;;;;;;;3.69;73.16;101937.59;4995280;28;20050;-85
2021/12/19 04:28:05;;;;;;;40.55;17.70;;;;;;;3.95;72.46;101942.41;4995064;28;20054;-85
2021/12/19 04:30:50;;;;;;;25.15;11.65;;;;;;;4.08;71.23;101950.16;4996047;28;20051;-85
2021/12/19 04:33:38;;;;;;;24.50;12.38;;;;;;;4.10;71.97;101948.06;4990159;28;20039;-85
2021/12/19 04:36:30;;;;;;;29.25;15.45;;;;;;;4.45;68.84;101947.88;4988535;28;20054;-84
2021/12/19 04:42:52;;;;;;;28.58;12.73;;;;;;;4.29;69.07;101938.72;4975131;28;20050;-85
2021/12/19 04:57:38;;;;;;;31.15;16.75;;;;;;;4.64;67.71;101916.09;4995327;28;20046;-84
2021/12/19 05:00:19;;;;;;;26.58;12.25;;;;;;;4.44;70.26;101908.53;4987406;28;20050;-84
2021/12/19 05:03:14;;;;;;;32.42;15.43;;;;;;;3.88;71.58;101895.97;4994318;28;20050;-84
2021/12/19 05:06:09;;;;;;;24.40;11.35;;;;;;;3.60;73.03;101898.69;4994452;28;20423;-84
2021/12/19 05:15:01;;;;;;;28.38;14.65;;;;;;;4.05;72.69;101894.16;4994358;28;20503;-85
2021/12/19 05:17:48;;;;;;;23.70;12.55;;;;;;;4.17;71.30;101902.94;4993958;28;20045;-85
2021/12/19 05:20:34;;;;;;;33.80;15.90;;;;;;;4.20;70.83;101905.19;4989511;28;20459;-84
2021/12/19 05:23:27;;;;;;;28.20;14.52;;;;;;;3.76;71.79;101911.34;4989637;28;20427;-85
2021/12/19 05:26:14;;;;;;;39.45;15.98;;;;;;;3.95;72.59;101899.34;4988527;28;20038;-84
2021/12/19 05:28:59;;;;;;;39.13;17.00;;;;;;;4.17;70.41;101894.06;4991007;28;20047;-85
2021/12/19 05:31:44;;;;;;;23.30;11.33;;;;;;;3.88;71.86;101894.09;4994785;28;20058;-85
2021/12/19 05:34:30;;;;;;;46.10;14.90;;;;;;;4.03;72.91;101890.88;4988576;28;20047;-84
2021/12/19 05:46:26;;;;;;;30.60;14.27;;;;;;;4.54;66.43;101867.47;4988832;28;20050;-85
2021/12/19 05:49:11;;;;;;;33.58;14.02;;;;;;;4.06;69.60;101860.81;4989941;28;20046;-85
2021/12/19 05:51:57;;;;;;;23.45;12.85;;;;;;;3.62;71.82;101850.84;5002228;28;20057;-86
2021/12/19 05:54:41;;;;;;;32.95;14.57;;;;;;;3.59;72.71;101854.03;4995082;28;20045;-84
2021/12/19 05:57:26;;;;;;;23.50;11.65;;;;;;;3.87;72.81;101865.56;4997681;28;20038;-85
2021/12/19 06:00:16;;;;;;;21.55;12.27;;;;;;;3.86;72.45;101861.25;4998803;28;20062;-84
2021/12/19 06:03:02;;;;;;;34.72;15.00;;;;;;;3.59;72.31;101862.09;4993668;28;20039;-85
2021/12/19 06:05:47;;;;;;;33.53;14.40;;;;;;;3.39;73.32;101855.28;5008207;28;20046;-85
2021/12/19 06:08:32;;;;;;;32.40;14.80;;;;;;;3.56;73.32;101857.19;4985510;28;20050;-85
2021/12/19 06:11:16;;;;;;;25.97;12.60;;;;;;;3.77;73.47;101859.19;4989274;28;20062;-84
2021/12/19 06:14:01;;;;;;;20.27;10.48;;;;;;;4.12;70.49;101856.28;4987774;28;20293;-84
2021/12/19 06:16:46;;;;;;;23.17;11.90;;;;;;;4.32;67.49;101849.34;4992120;28;20035;-85
2021/12/19 06:19:36;;;;;;;25.52;12.55;;;;;;;4.03;70.82;101847.81;4985815;28;20057;-84
2021/12/19 06:22:21;;;;;;;34.78;15.30;;;;;;;3.74;70.91;101841.66;4990666;28;20050;-84
2021/12/19 06:25:06;;;;;;;30.70;13.30;;;;;;;3.58;73.25;101844.31;4984968;28;20057;-84
2021/12/19 06:27:51;;;;;;;31.85;16.00;;;;;;;3.61;73.35;101847.34;4991059;28;20077;-84
2021/12/19 06:30:35;;;;;;;35.03;13.10;;;;;;;3.50;72.82;101825.91;4987216;28;20047;-84
2021/12/19 06:33:20;;;;;;;26.08;11.50;;;;;;;3.56;72.77;101835.66;4985559;28;20050;-83
2021/12/19 06:36:05;;;;;;;26.52;12.75;;;;;;;3.32;73.46;101838.47;4989603;28;20500;-84
2021/12/19 06:38:50;;;;;;;32.75;10.45;;;;;;;3.35;72.52;101837.19;4995577;28;20049;-83
2021/12/19 06:41:36;;;;;;;27.83;11.73;;;;;;;4.05;68.77;101831.44;5002035;28;20050;-83
2021/12/19 06:44:22;;;;;;;44.45;15.00;;;;;;;3.89;70.09;101811.53;4989030;28;20049;-83
2021/12/19 06:47:07;;;;;;;23.88;13.23;;;;;;;3.96;70.37;101814.88;4980899;28;20047;-84
2021/12/19 06:49:51;;;;;;;27.08;11.25;;;;;;;3.93;69.88;101820.72;4985194;28;20038;-84
2021/12/19 06:52:36;;;;;;;23.45;10.98;;;;;;;4.01;69.37;101812.28;4990352;28;20123;-84
2021/12/19 06:55:22;;;;;;;34.53;15.00;;;;;;;3.77;70.18;101806.22;4990113;28;20049;-84
2021/12/19 06:58:07;;;;;;;18.50;9.98;;;;;;;3.54;71.02;101808.22;4985381;28;20043;-84
2021/12/19 07:00:51;;;;;;;21.83;10.80;;;;;;;3.47;72.31;101810.22;5003034;28;20529;-84
2021/12/19 07:03:36;;;;;;;31.13;11.15;;;;;;;3.54;71.52;101805.53;4980383;28;20061;-84
2021/12/19 07:06:21;;;;;;;19.13;11.15;;;;;;;3.31;72.18;101801.88;4989777;28;20053;-84
2021/12/19 07:09:06;;;;;;;21.67;9.50;;;;;;;3.18;72.09;101802.19;4982972;28;20053;-84
2021/12/19 07:11:51;;;;;;;16.35;9.90;;;;;;;3.15;72.72;101805.31;4983161;28;20062;-84
2021/12/19 07:14:35;;;;;;;22.55;11.15;;;;;;;3.09;72.18;101795.56;4979163;28;20041;-84
2021/12/19 07:17:21;;;;;;;17.65;10.25;;;;;;;3.09;72.64;101798.25;4979482;28;20041;-84
2021/12/19 07:20:07;;;;;;;30.98;12.32;;;;;;;3.13;72.43;101787.81;4983079;28;20047;-84
2021/12/19 07:22:52;;;;;;;37.67;13.65;;;;;;;3.13;72.31;101798.56;4982098;28;20051;-84
2021/12/19 07:25:37;;;;;;;19.02;10.80;;;;;;;3.12;72.61;101803.13;4982941;28;20050;-84
2021/12/19 07:28:21;;;;;;;27.10;10.45;;;;;;;3.13;71.94;101798.56;4984986;28;20047;-84
2021/12/19 07:31:06;;;;;;;21.05;10.82;;;;;;;3.14;71.68;101803.72;4988310;28;20043;-84
2021/12/19 07:33:51;;;;;;;18.98;11.30;;;;;;;3.11;72.81;101795.28;4986633;28;20058;-84
2021/12/19 07:36:40;;;;;;;21.10;10.48;;;;;;;3.19;72.15;101793.06;4986362;28;20397;-84
2021/12/19 07:39:39;;;;;;;32.67;13.40;;;;;;;3.42;72.72;101790.25;4985772;28;20061;-84
2021/12/19 07:42:24;;;;;;;36.90;13.98;;;;;;;3.23;70.53;101788.00;4980905;28;20050;-85
2021/12/19 07:45:11;;;;;;;23.35;9.50;;;;;;;3.27;71.17;101789.97;4985107;28;20115;-85
2021/12/19 07:47:55;;;;;;;27.65;13.20;;;;;;;3.31;70.26;101790.31;4988575;28;20259;-85
2021/12/19 07:50:40;;;;;;;21.58;11.45;;;;;;;3.22;69.56;101787.19;4990795;28;20420;-85
2021/12/19 07:53:25;;;;;;;17.50;10.18;;;;;;;3.11;70.12;101780.00;4991141;28;20039;-86
2021/12/19 07:56:10;;;;;;;26.45;11.63;;;;;;;3.12;70.52;101770.06;4991414;28;20166;-85
2021/12/19 07:58:55;;;;;;;19.98;11.52;;;;;;;3.26;70.32;101774.91;4988507;28;20054;-85
2021/12/19 08:01:39;;;;;;;20.77;11.37;;;;;;;3.40;69.83;101768.16;4993833;28;20046;-83
2021/12/19 08:04:25;;;;;;;26.60;11.25;;;;;;;3.35;70.12;101764.59;4984489;28;20293;-83
2021/12/19 08:07:12;;;;;;;22.77;11.18;;;;;;;3.53;69.61;101767.06;4990671;28;20421;-83
2021/12/19 08:10:14;;;;;;;31.20;16.20;;;;;;;3.52;70.60;101765.44;4985871;28;20045;-83
2021/12/19 08:13:00;;;;;;;26.17;14.30;;;;;;;3.23;69.95;101772.72;4979744;28;20053;-83
2021/12/19 08:15:45;;;;;;;38.55;16.10;;;;;;;3.05;70.70;101775.56;5007628;28;20046;-84
2021/12/19 08:18:30;;;;;;;22.90;12.20;;;;;;;3.04;71.45;101757.84;5001049;28;20635;-83
2021/12/19 08:21:15;;;;;;;32.92;11.48;;;;;;;3.00;71.20;101753.97;4995266;28;20139;-83
2021/12/19 08:24:02;;;;;;;23.08;11.73;;;;;;;3.00;70.57;101756.66;4988344;28;20054;-86
2021/12/19 08:26:47;;;;;;;35.03;15.98;;;;;;;3.11;70.74;101755.00;4992322;28;20053;-84
2021/12/19 08:29:32;;;;;;;20.95;11.63;;;;;;;3.22;70.97;101754.13;4987894;28;20042;-85
2021/12/19 08:32:16;;;;;;;28.83;15.32;;;;;;;3.12;72.32;101754.75;4988695;28;20041;-85
2021/12/19 08:35:02;;;;;;;34.75;14.40;;;;;;;3.14;71.86;101743.78;4990002;28;20054;-84
2021/12/19 08:37:47;;;;;;;47.28;18.90;;;;;;;3.00;71.80;101751.28;4991226;28;20054;-84
2021/12/19 08:40:32;;;;;;;35.53;13.43;;;;;;;2.90;71.24;101748.41;4984944;28;20046;-84
2021/12/19 08:43:19;;;;;;;34.15;16.20;;;;;;;2.86;71.33;101744.56;4990023;28;20054;-84
2021/12/19 08:46:06;;;;;;;54.58;17.15;;;;;;;2.88;71.32;101747.84;4994967;28;20061;-82
2021/12/19 08:48:51;;;;;;;38.45;15.68;;;;;;;2.91;72.34;101741.97;4983583;28;20066;-83
2021/12/19 08:51:37;;;;;;;22.75;14.27;;;;;;;3.29;71.84;101734.13;4979891;28;20131;-83
2021/12/19 08:54:23;;;;;;;38.70;15.60;;;;;;;3.42;72.00;101723.06;4983976;28;20046;-83
2021/12/19 08:57:07;;;;;;;34.72;12.50;;;;;;;3.40;70.27;101722.47;4981012;28;20652;-84
2021/12/19 08:59:52;;;;;;;29.10;11.70;;;;;;;3.21;71.04;101715.69;4990451;28;20045;-84
2021/12/19 09:02:38;;;;;;;25.58;11.50;;;;;;;3.12;70.70;101729.75;4989112;28;20050;-85
2021/12/19 09:05:26;;;;;;;47.17;16.02;;;;;;;3.05;71.21;101724.53;4993001;28;20049;-85
2021/12/19 09:08:11;;;;;;;36.25;17.73;;;;;;;2.95;70.96;101717.09;4980264;28;20038;-85
2021/12/19 09:10:57;;;;;;;29.63;12.88;;;;;;;2.96;71.13;101716.03;4980404;28;20054;-85
2021/12/19 09:13:42;;;;;;;32.95;15.52;;;;;;;3.00;71.60;101721.75;4991112;28;20046;-85
2021/12/19 09:16:27;;;;;;;22.95;12.52;;;;;;;2.87;71.35;101716.66;4981254;28;20038;-85
2021/12/19 09:19:13;;;;;;;28.92;15.82;;;;;;;2.91;71.85;101729.38;4983603;28;20511;-84
2021/12/19 09:21:59;;;;;;;36.50;14.80;;;;;;;2.94;71.65;101722.72;4985692;28;20047;-87
2021/12/19 09:24:43;;;;;;;31.30;13.02;;;;;;;2.99;71.16;101726.31;4984373;28;20039;-85
2021/12/19 09:27:28;;;;;;;17.95;11.05;;;;;;;3.13;70.69;101723.34;4983839;28;20042;-85
2021/12/19 09:30:14;;;;;;;25.40;12.23;;;;;;;3.00;71.80;101721.75;4980531;28;20050;-86
2021/12/19 09:32:59;;;;;;;37.50;15.40;;;;;;;3.05;71.76;101721.84;4985846;28;20054;-85
2021/12/19 09:35:44;;;;;;;26.50;12.45;;;;;;;2.96;71.61;101718.72;4983678;28;20054;-85
2021/12/19 09:38:28;;;;;;;24.48;12.68;;;;;;;3.09;71.84;101714.13;4986147;28;20522;-83
2021/12/19 09:41:17;;;;;;;33.70;14.27;;;;;;;3.04;71.15;101706.78;4986969;28;20058;-85
2021/12/19 09:44:05;;;;;;;33.22;16.20;;;;;;;3.01;70.65;101697.31;4984705;28;20043;-86
2021/12/19 09:46:51;;;;;;;29.67;15.15;;;;;;;3.09;70.94;101692.63;4987747;28;20057;-86
2021/12/19 09:49:36;;;;;;;41.72;15.77;;;;;;;3.10;70.50;101692.38;4985342;28;20069;-85
2021/12/19 09:52:21;;;;;;;28.17;15.95;;;;;;;3.19;70.58;101682.06;4984903;28;20058;-85
2021/12/19 09:55:06;;;;;;;23.35;13.07;;;;;;;3.20;69.88;101691.75;4988842;28;20542;-85
2021/12/19 09:57:53;;;;;;;32.05;13.32;;;;;;;3.18;70.36;101697.38;4987485;28;20051;-85
2021/12/19 10:00:38;;;;;;;27.55;16.15;;;;;;;3.29;70.28;101675.00;4986674;28;20054;-84
2021/12/19 10:03:23;;;;;;;27.40;16.83;;;;;;;3.31;70.48;101672.03;4991893;28;20045;-85
2021/12/19 10:06:28;;;;;;;22.08;13.05;;;;;;;3.17;70.39;101671.53;4998924;28;20042;-85
2021/12/19 10:09:17;;;;;;;26.15;11.23;;;;;;;3.19;70.48;101672.13;5005858;28;20420;-84
2021/12/19 10:12:25;;;;;;;32.42;16.33;;;;;;;3.23;70.17;101670.59;5001718;28;20407;-84
2021/12/19 10:15:14;;;;;;;25.63;13.95;;;;;;;3.40;70.17;101666.00;4990292;28;20050;-85
2021/12/19 10:18:03;;;;;;;27.55;15.70;;;;;;;3.40;70.50;101655.25;4997401;28;20045;-84
2021/12/19 10:20:57;;;;;;;40.15;14.55;;;;;;;3.35;69.91;101643.63;4986379;28;20042;-84
2021/12/19 10:23:43;;;;;;;18.35;11.15;;;;;;;3.25;70.09;101641.56;4986774;28;20046;-85
2021/12/19 10:26:40;;;;;;;18.92;11.82;;;;;;;3.24;71.16;101634.59;4970885;28;20051;-84
2021/12/19 10:29:42;;;;;;;27.10;15.88;;;;;;;3.35;71.02;101646.31;4981093;28;20053;-85
2021/12/19 10:32:27;;;;;;;29.25;16.80;;;;;;;3.38;70.59;101630.53;4988941;28;20043;-85
2021/12/19 10:35:14;;;;;;;25.38;12.88;;;;;;;3.36;70.46;101629.13;5001014;28;20042;-85
2021/12/19 10:38:00;;;;;;;32.08;17.00;;;;;;;3.48;70.82;101611.03;4967824;28;20043;-85
2021/12/19 10:40:53;;;;;;;37.45;16.13;;;;;;;3.50;70.82;101613.50;4984577;28;20049;-86
2021/12/19 10:46:45;;;;;;;36.25;19.38;;;;;;;3.42;70.89;101601.25;4967458;28;20043;-85
2021/12/19 10:49:32;;;;;;;32.70;17.85;;;;;;;3.55;71.81;101598.25;4977081;28;20041;-85
2021/12/19 10:52:34;;;;;;;33.60;18.17;;;;;;;3.71;71.06;101600.06;4987687;28;20078;-85
2021/12/19 10:55:19;;;;;;;32.35;18.40;;;;;;;3.73;70.47;101591.75;4991053;28;20061;-85
2021/12/19 10:58:18;;;;;;;30.25;14.95;;;;;;;3.82;71.02;101587.56;4989605;28;20039;-86
2021/12/19 11:01:08;;;;;;;36.55;18.02;;;;;;;3.83;72.06;101583.81;4987400;28;20049;-85
2021/12/19 11:03:57;;;;;;;42.22;19.05;;;;;;;3.93;71.91;101564.31;4989307;28;20413;-84
2021/12/19 11:06:59;;;;;;;32.47;18.35;;;;;;;3.92;71.63;101560.00;4987161;28;20054;-85
2021/12/19 11:09:44;;;;;;;39.28;18.95;;;;;;;4.05;70.12;101555.06;4977499;28;20062;-85
2021/12/19 11:12:29;;;;;;;31.73;15.88;;;;;;;4.24;68.97;101561.75;4970192;28;20054;-86
2021/12/19 11:15:14;;;;;;;25.98;15.13;;;;;;;4.21;69.96;101556.88;4979968;28;20050;-85
2021/12/19 11:17:59;;;;;;;24.05;14.00;;;;;;;4.07;69.69;101550.22;5001979;28;20053;-85
2021/12/19 11:20:44;;;;;;;29.20;14.63;;;;;;;4.10;70.86;101530.91;4999083;28;20049;-85
2021/12/19 11:23:29;;;;;;;28.05;17.13;;;;;;;4.06;70.48;101527.09;4989230;28;20057;-86
2021/12/19 11:26:16;;;;;;;27.80;15.20;;;;;;;4.16;70.42;101521.00;4982440;28;20050;-85
2021/12/19 11:29:02;;;;;;;38.33;20.02;;;;;;;4.15;69.86;101520.19;4986167;28;20047;-85
2021/12/19 11:31:52;;;;;;;33.13;18.08;;;;;;;4.45;68.46;101526.97;4988937;28;20054;-86
2021/12/19 11:34:59;;;;;;;37.17;20.00;;;;;;;4.26;69.16;101518.44;4985355;28;20053;-85
2021/12/19 11:37:51;;;;;;;39.38;20.13;;;;;;;4.29;70.40;101513.34;4988380;28;20046;-86
2021/12/19 11:40:37;;;;;;;38.45;20.23;;;;;;;4.16;70.11;101497.59;4986151;28;20049;-85
2021/12/19 11:43:21;;;;;;;44.20;19.52;;;;;;;4.16;70.16;101497.59;4990696;28;20046;-85
2021/12/19 11:46:39;;;;;;;32.05;14.80;;;;;;;4.18;70.72;101495.44;4989457;28;20057;-85
2021/12/19 11:49:25;;;;;;;33.05;18.48;;;;;;;4.16;70.15;101486.84;5002635;28;20046;-85
2021/12/19 11:52:27;;;;;;;39.63;19.63;;;;;;;4.27;70.15;101487.72;4999663;28;20053;-84
2021/12/19 11:55:15;;;;;;;37.38;20.05;;;;;;;4.35;70.22;101476.50;4983459;28;20128;-85
2021/12/19 11:58:09;;;;;;;43.95;20.98;;;;;;;4.18;70.44;101481.19;4988962;28;20046;-84
2021/12/19 12:01:05;;;;;;;40.50;20.33;;;;;;;4.17;70.78;101471.47;4990335;28;20049;-85
2021/12/19 12:03:59;;;;;;;39.00;19.77;;;;;;;4.08;71.54;101454.16;4989612;28;20046;-84
2021/12/19 12:06:54;;;;;;;42.72;20.42;;;;;;;4.12;71.01;101448.00;4990677;28;20039;-84
2021/12/19 12:09:55;;;;;;;30.55;15.93;;;;;;;4.26;71.35;101443.06;4985906;28;20042;-85
2021/12/19 12:12:49;;;;;;;34.60;18.80;;;;;;;4.40;70.93;101440.75;5003050;28;20045;-84
2021/12/19 12:15:34;;;;;;;45.58;19.38;;;;;;;4.51;71.17;101434.38;4988925;28;20046;-84
2021/12/19 12:18:28;;;;;;;28.30;16.05;;;;;;;4.63;69.93;101429.63;4986761;28;20062;-84
2021/12/19 12:21:20;;;;;;;35.53;18.58;;;;;;;4.64;70.07;101436.63;4988879;28;20053;-83
2021/12/19 12:24:11;;;;;;;40.22;20.65;;;;;;;4.85;68.72;101434.91;4983869;28;20039;-84
2021/12/19 12:26:59;;;;;;;42.00;21.55;;;;;;;4.73;69.59;101435.88;4989153;28;20046;-84
2021/12/19 12:29:45;;;;;;;38.85;20.05;;;;;;;4.73;69.62;101427.00;4988572;28;20035;-84
2021/12/19 12:32:30;;;;;;;33.40;20.20;;;;;;;5.41;66.61;101427.94;4990997;28;20053;-84
2021/12/19 12:35:16;;;;;;;31.67;17.85;;;;;;;5.06;68.10;101415.91;4994160;28;20077;-84
2021/12/19 12:38:01;;;;;;;42.03;21.08;;;;;;;5.28;67.24;101410.38;4983725;28;20043;-84
2021/12/19 12:40:58;;;;;;;37.38;19.75;;;;;;;5.09;68.24;101399.19;4989593;28;20412;-84
2021/12/19 12:43:43;;;;;;;37.22;19.92;;;;;;;4.78;69.64;101400.09;4993203;28;20412;-84
2021/12/19 12:46:28;;;;;;;31.00;17.38;;;;;;;4.78;69.54;101389.31;4990675;28;20049;-84
2021/12/19 12:49:24;;;;;;;32.67;16.58;;;;;;;4.81;69.52;101379.91;4970482;28;20136;-84
2021/12/19 12:52:10;;;;;;;36.80;20.38;;;;;;;4.84;69.88;101380.19;4988085;28;20066;-83
2021/12/19 12:55:03;;;;;;;36.15;20.00;;;;;;;5.02;70.26;101392.44;4991503;28;20047;-83
2021/12/19 12:57:48;;;;;;;41.22;20.13;;;;;;;5.06;68.86;101374.66;4984313;28;20120;-83
2021/12/19 13:00:33;;;;;;;29.63;16.73;;;;;;;5.00;69.70;101362.22;4989813;28;20127;-82
2021/12/19 13:03:28;;;;;;;30.27;17.40;;;;;;;5.12;69.01;101365.53;4990341;28;20412;-83
2021/12/19 13:06:13;;;;;;;40.15;20.92;;;;;;;5.39;67.49;101357.25;4988246;28;20046;-83
2021/12/19 13:09:12;;;;;;;29.40;16.95;;;;;;;5.55;66.56;101361.63;4983938;28;20062;-83
2021/12/19 13:12:06;;;;;;;48.42;22.20;;;;;;;5.17;68.31;101352.06;4985256;28;20058;-83
2021/12/19 13:15:05;;;;;;;39.03;20.90;;;;;;;5.25;67.88;101346.16;4986897;28;20053;-84
2021/12/19 13:17:51;;;;;;;40.75;22.83;;;;;;;5.10;68.89;101352.31;4988441;28;20035;-84
2021/12/19 13:20:38;;;;;;;43.72;23.02;;;;;;;5.37;67.71;101345.94;4989673;28;20042;-84
2021/12/19 13:23:23;;;;;;;45.72;22.90;;;;;;;5.53;66.98;101340.34;4983064;28;20043;-85
2021/12/19 13:26:07;;;;;;;32.58;18.02;;;;;;;5.79;66.15;101340.38;4999936;28;20057;-85
2021/12/19 13:28:52;;;;;;;36.83;18.88;;;;;;;5.71;66.41;101336.31;4988278;28;20058;-85
2021/12/19 13:31:37;;;;;;;30.73;17.50;;;;;;;5.67;66.66;101318.22;4983548;28;20125;-85
2021/12/19 13:34:22;;;;;;;39.58;17.90;;;;;;;5.37;68.72;101318.97;4981409;28;20046;-85
2021/12/19 13:37:07;;;;;;;31.45;17.70;;;;;;;5.33;68.96;101328.69;4989050;28;20039;-85
2021/12/19 13:40:07;;;;;;;30.13;16.92;;;;;;;5.30;68.82;101323.78;4979783;28;20050;-85
2021/12/19 13:42:59;;;;;;;48.75;24.23;;;;;;;5.26;68.96;101328.09;4988259;28;20046;-85
2021/12/19 13:45:52;;;;;;;40.72;22.27;;;;;;;5.40;69.27;101331.91;4986677;28;20043;-85
2021/12/19 13:48:41;;;;;;;53.67;22.17;;;;;;;5.67;68.18;101329.03;4987122;28;20055;-86
2021/12/19 13:51:31;;;;;;;49.08;22.08;;;;;;;5.82;66.77;101323.66;4981143;28;20055;-85